sensor_id;sensor_type;location;lat;lon;timestamp;P1;durP1;ratioP1;P2;durP2;ratioP2
62030;SDS011;62035;52.094;5.112;2023-06-22T00:00:01;8.35;;;5.60;;
62030;SDS011;62035;52.094;5.112;2023-06-22T00:02:34;8.13;;;4.78;;
62030;SDS011;62035;52.094;5.112;2023-06-22T00:05:01;9.85;;;5.13;;
62030;SDS011;62035;52.094;5.112;2023-06-22T00:07:29;7.82;;;5.32;;
62030;SDS011;62035;52.094;5.112;2023-06-22T00:09:56;6.65;;;5.20;;
62030;SDS011;62035;52.094;5.112;2023-06-22T00:12:24;10.50;;;5.63;;
62030;SDS011;62035;52.094;5.112;2023-06-22T00:14:53;10.02;;;5.95;;
62030;SDS011;62035;52.094;5.112;2023-06-22T00:17:20;9.60;;;6.07;;
62030;SDS011;62035;52.094;5.112;2023-06-22T00:19:48;7.95;;;5.53;;
62030;SDS011;62035;52.094;5.112;2023-06-22T00:22:19;10.83;;;6.27;;
62030;SDS011;62035;52.094;5.112;2023-06-22T00:24:54;10.50;;;5.82;;
62030;SDS011;62035;52.094;5.112;2023-06-22T00:27:22;9.93;;;6.53;;
62030;SDS011;62035;52.094;5.112;2023-06-22T00:29:50;10.02;;;6.25;;
62030;SDS011;62035;52.094;5.112;2023-06-22T00:32:19;10.23;;;6.57;;
62030;SDS011;62035;52.094;5.112;2023-06-22T00:34:46;9.43;;;6.15;;
62030;SDS011;62035;52.094;5.112;2023-06-22T00:37:14;10.00;;;6.10;;
62030;SDS011;62035;52.094;5.112;2023-06-22T00:39:42;10.65;;;6.70;;
62030;SDS011;62035;52.094;5.112;2023-06-22T00:42:10;12.57;;;7.32;;
62030;SDS011;62035;52.094;5.112;2023-06-22T00:44:37;10.23;;;6.75;;
62030;SDS011;62035;52.094;5.112;2023-06-22T00:47:05;9.73;;;6.55;;
62030;SDS011;62035;52.094;5.112;2023-06-22T00:49:34;13.75;;;6.68;;
62030;SDS011;62035;52.094;5.112;2023-06-22T00:52:02;10.93;;;6.70;;
62030;SDS011;62035;52.094;5.112;2023-06-22T00:54:34;11.45;;;6.80;;
62030;SDS011;62035;52.094;5.112;2023-06-22T00:57:02;11.05;;;6.75;;
62030;SDS011;62035;52.094;5.112;2023-06-22T00:59:31;11.63;;;6.85;;
62030;SDS011;62035;52.094;5.112;2023-06-22T01:01:59;11.68;;;7.38;;
62030;SDS011;62035;52.094;5.112;2023-06-22T01:04:34;9.73;;;6.80;;
62030;SDS011;62035;52.094;5.112;2023-06-22T01:07:07;12.57;;;7.18;;
62030;SDS011;62035;52.094;5.112;2023-06-22T01:09:49;14.13;;;7.75;;
62030;SDS011;62035;52.094;5.112;2023-06-22T01:12:26;12.90;;;7.82;;
62030;SDS011;62035;52.094;5.112;2023-06-22T01:15:07;13.52;;;8.18;;
62030;SDS011;62035;52.094;5.112;2023-06-22T01:17:39;16.83;;;8.50;;
62030;SDS011;62035;52.094;5.112;2023-06-22T01:20:12;13.02;;;8.45;;
62030;SDS011;62035;52.094;5.112;2023-06-22T01:22:46;11.93;;;8.30;;
62030;SDS011;62035;52.094;5.112;2023-06-22T01:25:31;14.27;;;8.70;;
62030;SDS011;62035;52.094;5.112;2023-06-22T01:28:17;15.52;;;9.35;;
62030;SDS011;62035;52.094;5.112;2023-06-22T01:31:15;13.50;;;8.55;;
62030;SDS011;62035;52.094;5.112;2023-06-22T01:33:47;23.65;;;9.05;;
62030;SDS011;62035;52.094;5.112;2023-06-22T01:36:18;13.65;;;9.05;;
62030;SDS011;62035;52.094;5.112;2023-06-22T01:38:49;18.50;;;10.05;;
62030;SDS011;62035;52.094;5.112;2023-06-22T01:41:19;15.93;;;9.30;;
62030;SDS011;62035;52.094;5.112;2023-06-22T01:43:49;16.63;;;9.05;;
62030;SDS011;62035;52.094;5.112;2023-06-22T01:46:18;18.27;;;8.82;;
62030;SDS011;62035;52.094;5.112;2023-06-22T01:48:47;16.02;;;9.05;;
62030;SDS011;62035;52.094;5.112;2023-06-22T01:51:16;13.65;;;8.98;;
62030;SDS011;62035;52.094;5.112;2023-06-22T01:53:44;14.98;;;9.13;;
62030;SDS011;62035;52.094;5.112;2023-06-22T01:56:14;16.48;;;9.60;;
62030;SDS011;62035;52.094;5.112;2023-06-22T02:01:20;12.23;;;8.23;;
62030;SDS011;62035;52.094;5.112;2023-06-22T02:03:57;13.65;;;8.52;;
62030;SDS011;62035;52.094;5.112;2023-06-22T02:06:33;15.82;;;8.93;;
62030;SDS011;62035;52.094;5.112;2023-06-22T02:09:06;12.77;;;8.63;;
62030;SDS011;62035;52.094;5.112;2023-06-22T02:11:39;15.30;;;8.77;;
62030;SDS011;62035;52.094;5.112;2023-06-22T02:14:13;13.95;;;9.18;;
62030;SDS011;62035;52.094;5.112;2023-06-22T02:16:42;15.65;;;9.43;;
62030;SDS011;62035;52.094;5.112;2023-06-22T02:19:11;15.25;;;9.73;;
62030;SDS011;62035;52.094;5.112;2023-06-22T02:21:42;16.15;;;9.27;;
62030;SDS011;62035;52.094;5.112;2023-06-22T02:24:09;14.27;;;9.63;;
62030;SDS011;62035;52.094;5.112;2023-06-22T02:26:37;17.02;;;9.25;;
62030;SDS011;62035;52.094;5.112;2023-06-22T02:29:08;16.52;;;9.80;;
62030;SDS011;62035;52.094;5.112;2023-06-22T02:31:37;20.50;;;9.45;;
62030;SDS011;62035;52.094;5.112;2023-06-22T02:34:05;15.13;;;9.68;;
62030;SDS011;62035;52.094;5.112;2023-06-22T02:36:32;16.45;;;9.45;;
62030;SDS011;62035;52.094;5.112;2023-06-22T02:39:00;15.73;;;10.20;;
62030;SDS011;62035;52.094;5.112;2023-06-22T02:41:29;13.82;;;9.05;;
62030;SDS011;62035;52.094;5.112;2023-06-22T02:43:57;15.90;;;9.85;;
62030;SDS011;62035;52.094;5.112;2023-06-22T02:46:24;15.93;;;9.88;;
62030;SDS011;62035;52.094;5.112;2023-06-22T02:48:54;15.20;;;9.55;;
62030;SDS011;62035;52.094;5.112;2023-06-22T02:51:21;15.43;;;8.80;;
62030;SDS011;62035;52.094;5.112;2023-06-22T02:53:49;16.60;;;9.75;;
62030;SDS011;62035;52.094;5.112;2023-06-22T02:56:22;13.50;;;8.98;;
62030;SDS011;62035;52.094;5.112;2023-06-22T02:58:51;16.38;;;9.27;;
62030;SDS011;62035;52.094;5.112;2023-06-22T03:01:18;19.13;;;9.15;;
62030;SDS011;62035;52.094;5.112;2023-06-22T03:03:50;14.65;;;9.35;;
62030;SDS011;62035;52.094;5.112;2023-06-22T03:06:19;14.93;;;9.00;;
62030;SDS011;62035;52.094;5.112;2023-06-22T03:08:49;15.02;;;9.23;;
62030;SDS011;62035;52.094;5.112;2023-06-22T03:11:18;13.95;;;9.02;;
62030;SDS011;62035;52.094;5.112;2023-06-22T03:13:45;16.30;;;9.40;;
62030;SDS011;62035;52.094;5.112;2023-06-22T03:16:13;16.17;;;10.63;;
62030;SDS011;62035;52.094;5.112;2023-06-22T03:18:41;14.43;;;9.68;;
62030;SDS011;62035;52.094;5.112;2023-06-22T03:21:08;17.20;;;9.88;;
62030;SDS011;62035;52.094;5.112;2023-06-22T03:23:38;15.60;;;9.13;;
62030;SDS011;62035;52.094;5.112;2023-06-22T03:26:05;14.35;;;9.07;;
62030;SDS011;62035;52.094;5.112;2023-06-22T03:28:33;17.42;;;9.93;;
62030;SDS011;62035;52.094;5.112;2023-06-22T03:31:01;17.80;;;10.07;;
62030;SDS011;62035;52.094;5.112;2023-06-22T03:33:30;15.25;;;8.82;;
62030;SDS011;62035;52.094;5.112;2023-06-22T03:35:57;15.75;;;9.85;;
62030;SDS011;62035;52.094;5.112;2023-06-22T03:38:25;15.60;;;9.38;;
62030;SDS011;62035;52.094;5.112;2023-06-22T03:40:54;15.85;;;9.63;;
62030;SDS011;62035;52.094;5.112;2023-06-22T03:43:22;13.70;;;9.95;;
62030;SDS011;62035;52.094;5.112;2023-06-22T03:45:50;14.90;;;9.10;;
62030;SDS011;62035;52.094;5.112;2023-06-22T03:48:18;17.13;;;10.02;;
62030;SDS011;62035;52.094;5.112;2023-06-22T03:50:45;14.07;;;10.75;;
62030;SDS011;62035;52.094;5.112;2023-06-22T03:53:13;17.35;;;10.15;;
62030;SDS011;62035;52.094;5.112;2023-06-22T03:55:47;19.40;;;11.52;;
62030;SDS011;62035;52.094;5.112;2023-06-22T03:58:18;17.40;;;10.82;;
62030;SDS011;62035;52.094;5.112;2023-06-22T04:00:47;17.77;;;11.80;;
62030;SDS011;62035;52.094;5.112;2023-06-22T04:03:16;17.88;;;11.50;;
62030;SDS011;62035;52.094;5.112;2023-06-22T04:05:45;14.50;;;10.02;;
62030;SDS011;62035;52.094;5.112;2023-06-22T04:08:13;15.82;;;11.32;;
62030;SDS011;62035;52.094;5.112;2023-06-22T04:10:42;18.10;;;11.23;;
62030;SDS011;62035;52.094;5.112;2023-06-22T04:13:10;17.27;;;10.23;;
62030;SDS011;62035;52.094;5.112;2023-06-22T04:15:39;17.42;;;10.75;;
62030;SDS011;62035;52.094;5.112;2023-06-22T04:18:07;16.83;;;9.95;;
62030;SDS011;62035;52.094;5.112;2023-06-22T04:20:35;16.38;;;10.00;;
62030;SDS011;62035;52.094;5.112;2023-06-22T04:23:03;18.63;;;10.20;;
62030;SDS011;62035;52.094;5.112;2023-06-22T04:25:30;16.30;;;9.85;;
62030;SDS011;62035;52.094;5.112;2023-06-22T04:27:58;15.98;;;9.63;;
62030;SDS011;62035;52.094;5.112;2023-06-22T04:30:29;19.05;;;10.38;;
62030;SDS011;62035;52.094;5.112;2023-06-22T04:32:59;13.20;;;10.35;;
62030;SDS011;62035;52.094;5.112;2023-06-22T04:35:26;19.08;;;10.45;;
62030;SDS011;62035;52.094;5.112;2023-06-22T04:37:55;14.65;;;9.82;;
62030;SDS011;62035;52.094;5.112;2023-06-22T04:40:25;13.93;;;10.03;;
62030;SDS011;62035;52.094;5.112;2023-06-22T04:42:53;16.88;;;10.77;;
62030;SDS011;62035;52.094;5.112;2023-06-22T04:45:21;16.70;;;10.18;;
62030;SDS011;62035;52.094;5.112;2023-06-22T04:47:48;17.85;;;10.07;;
62030;SDS011;62035;52.094;5.112;2023-06-22T04:50:18;14.50;;;10.57;;
62030;SDS011;62035;52.094;5.112;2023-06-22T04:52:46;16.30;;;10.93;;
62030;SDS011;62035;52.094;5.112;2023-06-22T04:55:14;17.48;;;11.20;;
62030;SDS011;62035;52.094;5.112;2023-06-22T04:57:44;18.95;;;11.60;;
62030;SDS011;62035;52.094;5.112;2023-06-22T05:00:14;15.30;;;11.10;;
62030;SDS011;62035;52.094;5.112;2023-06-22T05:02:44;18.80;;;11.20;;
62030;SDS011;62035;52.094;5.112;2023-06-22T05:05:13;15.65;;;10.18;;
62030;SDS011;62035;52.094;5.112;2023-06-22T05:07:43;13.65;;;10.18;;
62030;SDS011;62035;52.094;5.112;2023-06-22T05:10:14;16.67;;;10.63;;
62030;SDS011;62035;52.094;5.112;2023-06-22T05:12:42;14.40;;;9.75;;
62030;SDS011;62035;52.094;5.112;2023-06-22T05:15:09;16.63;;;9.50;;
62030;SDS011;62035;52.094;5.112;2023-06-22T05:17:37;14.55;;;9.57;;
62030;SDS011;62035;52.094;5.112;2023-06-22T05:20:08;17.30;;;10.10;;
62030;SDS011;62035;52.094;5.112;2023-06-22T05:22:37;13.07;;;9.60;;
62030;SDS011;62035;52.094;5.112;2023-06-22T05:25:08;15.60;;;9.80;;
62030;SDS011;62035;52.094;5.112;2023-06-22T05:27:37;21.10;;;10.75;;
62030;SDS011;62035;52.094;5.112;2023-06-22T05:30:06;19.70;;;10.48;;
62030;SDS011;62035;52.094;5.112;2023-06-22T05:32:35;16.08;;;11.13;;
62030;SDS011;62035;52.094;5.112;2023-06-22T05:35:03;13.57;;;9.85;;
62030;SDS011;62035;52.094;5.112;2023-06-22T05:37:32;16.88;;;10.45;;
62030;SDS011;62035;52.094;5.112;2023-06-22T05:40:00;16.75;;;10.93;;
62030;SDS011;62035;52.094;5.112;2023-06-22T05:42:30;16.02;;;11.15;;
62030;SDS011;62035;52.094;5.112;2023-06-22T05:44:58;16.85;;;10.55;;
62030;SDS011;62035;52.094;5.112;2023-06-22T05:47:25;18.20;;;12.57;;
62030;SDS011;62035;52.094;5.112;2023-06-22T05:49:53;17.33;;;12.02;;
62030;SDS011;62035;52.094;5.112;2023-06-22T05:52:21;17.42;;;11.10;;
62030;SDS011;62035;52.094;5.112;2023-06-22T05:54:49;19.67;;;12.20;;
62030;SDS011;62035;52.094;5.112;2023-06-22T05:57:16;17.73;;;12.50;;
62030;SDS011;62035;52.094;5.112;2023-06-22T05:59:45;20.65;;;12.60;;
62030;SDS011;62035;52.094;5.112;2023-06-22T06:02:13;17.00;;;12.52;;
62030;SDS011;62035;52.094;5.112;2023-06-22T06:04:41;18.58;;;12.25;;
62030;SDS011;62035;52.094;5.112;2023-06-22T06:07:08;20.17;;;13.30;;
62030;SDS011;62035;52.094;5.112;2023-06-22T06:09:36;20.70;;;13.00;;
62030;SDS011;62035;52.094;5.112;2023-06-22T06:12:04;22.15;;;14.18;;
62030;SDS011;62035;52.094;5.112;2023-06-22T06:14:32;18.70;;;13.38;;
62030;SDS011;62035;52.094;5.112;2023-06-22T06:17:01;22.05;;;13.38;;
62030;SDS011;62035;52.094;5.112;2023-06-22T06:19:29;20.45;;;14.57;;
62030;SDS011;62035;52.094;5.112;2023-06-22T06:21:57;22.63;;;14.80;;
62030;SDS011;62035;52.094;5.112;2023-06-22T06:24:26;22.23;;;14.77;;
62030;SDS011;62035;52.094;5.112;2023-06-22T06:26:53;23.30;;;16.00;;
62030;SDS011;62035;52.094;5.112;2023-06-22T06:29:21;23.00;;;14.52;;
62030;SDS011;62035;52.094;5.112;2023-06-22T06:31:49;22.13;;;15.10;;
62030;SDS011;62035;52.094;5.112;2023-06-22T06:34:18;23.45;;;15.68;;
62030;SDS011;62035;52.094;5.112;2023-06-22T06:36:46;24.48;;;14.50;;
62030;SDS011;62035;52.094;5.112;2023-06-22T06:39:13;20.45;;;13.68;;
62030;SDS011;62035;52.094;5.112;2023-06-22T06:41:41;21.92;;;14.73;;
62030;SDS011;62035;52.094;5.112;2023-06-22T06:44:09;24.63;;;14.52;;
62030;SDS011;62035;52.094;5.112;2023-06-22T06:46:37;22.67;;;13.90;;
62030;SDS011;62035;52.094;5.112;2023-06-22T06:49:05;25.23;;;13.40;;
62030;SDS011;62035;52.094;5.112;2023-06-22T06:51:34;24.58;;;14.27;;
62030;SDS011;62035;52.094;5.112;2023-06-22T06:54:01;20.05;;;13.27;;
62030;SDS011;62035;52.094;5.112;2023-06-22T06:56:30;17.58;;;13.25;;
62030;SDS011;62035;52.094;5.112;2023-06-22T06:58:58;18.95;;;13.57;;
62030;SDS011;62035;52.094;5.112;2023-06-22T07:01:26;17.70;;;12.20;;
62030;SDS011;62035;52.094;5.112;2023-06-22T07:03:59;20.02;;;14.27;;
62030;SDS011;62035;52.094;5.112;2023-06-22T07:06:27;25.50;;;14.65;;
62030;SDS011;62035;52.094;5.112;2023-06-22T07:08:59;19.63;;;14.88;;
62030;SDS011;62035;52.094;5.112;2023-06-22T07:11:27;22.52;;;14.18;;
62030;SDS011;62035;52.094;5.112;2023-06-22T07:13:54;20.30;;;14.23;;
62030;SDS011;62035;52.094;5.112;2023-06-22T07:16:22;24.63;;;16.35;;
62030;SDS011;62035;52.094;5.112;2023-06-22T07:18:51;21.98;;;13.30;;
62030;SDS011;62035;52.094;5.112;2023-06-22T07:21:19;22.35;;;13.75;;
62030;SDS011;62035;52.094;5.112;2023-06-22T07:23:46;20.67;;;13.10;;
62030;SDS011;62035;52.094;5.112;2023-06-22T07:26:15;21.20;;;12.90;;
62030;SDS011;62035;52.094;5.112;2023-06-22T07:28:43;21.42;;;13.02;;
62030;SDS011;62035;52.094;5.112;2023-06-22T07:31:11;20.55;;;11.20;;
62030;SDS011;62035;52.094;5.112;2023-06-22T07:33:38;17.55;;;11.02;;
62030;SDS011;62035;52.094;5.112;2023-06-22T07:36:06;17.58;;;10.88;;
62030;SDS011;62035;52.094;5.112;2023-06-22T07:38:34;13.98;;;12.00;;
62030;SDS011;62035;52.094;5.112;2023-06-22T07:41:02;15.60;;;10.70;;
62030;SDS011;62035;52.094;5.112;2023-06-22T07:43:32;22.02;;;12.88;;
62030;SDS011;62035;52.094;5.112;2023-06-22T07:46:02;18.65;;;10.40;;
62030;SDS011;62035;52.094;5.112;2023-06-22T07:48:30;18.63;;;12.02;;
62030;SDS011;62035;52.094;5.112;2023-06-22T07:50:58;19.13;;;12.68;;
62030;SDS011;62035;52.094;5.112;2023-06-22T07:53:26;16.77;;;11.45;;
62030;SDS011;62035;52.094;5.112;2023-06-22T07:55:54;18.35;;;10.68;;
62030;SDS011;62035;52.094;5.112;2023-06-22T07:58:21;16.67;;;11.15;;
62030;SDS011;62035;52.094;5.112;2023-06-22T08:00:51;16.95;;;11.93;;
62030;SDS011;62035;52.094;5.112;2023-06-22T08:03:18;17.08;;;12.02;;
62030;SDS011;62035;52.094;5.112;2023-06-22T08:05:46;15.68;;;10.50;;
62030;SDS011;62035;52.094;5.112;2023-06-22T08:08:14;20.13;;;11.73;;
62030;SDS011;62035;52.094;5.112;2023-06-22T08:10:42;18.73;;;10.90;;
62030;SDS011;62035;52.094;5.112;2023-06-22T08:13:10;18.48;;;11.60;;
62030;SDS011;62035;52.094;5.112;2023-06-22T08:15:37;16.48;;;10.27;;
62030;SDS011;62035;52.094;5.112;2023-06-22T08:18:07;19.92;;;10.45;;
62030;SDS011;62035;52.094;5.112;2023-06-22T08:20:34;14.70;;;9.90;;
62030;SDS011;62035;52.094;5.112;2023-06-22T08:23:02;12.77;;;9.30;;
62030;SDS011;62035;52.094;5.112;2023-06-22T08:25:32;13.68;;;8.52;;
62030;SDS011;62035;52.094;5.112;2023-06-22T08:28:00;12.70;;;8.80;;
62030;SDS011;62035;52.094;5.112;2023-06-22T08:30:27;15.02;;;8.70;;
62030;SDS011;62035;52.094;5.112;2023-06-22T08:32:57;15.68;;;9.80;;
62030;SDS011;62035;52.094;5.112;2023-06-22T08:35:27;17.35;;;11.20;;
62030;SDS011;62035;52.094;5.112;2023-06-22T08:37:55;14.70;;;10.00;;
62030;SDS011;62035;52.094;5.112;2023-06-22T08:40:22;15.57;;;10.15;;
62030;SDS011;62035;52.094;5.112;2023-06-22T08:42:51;15.07;;;9.50;;
62030;SDS011;62035;52.094;5.112;2023-06-22T08:45:19;14.65;;;10.32;;
62030;SDS011;62035;52.094;5.112;2023-06-22T08:47:47;13.40;;;9.80;;
62030;SDS011;62035;52.094;5.112;2023-06-22T08:50:15;15.90;;;8.70;;
62030;SDS011;62035;52.094;5.112;2023-06-22T08:52:44;12.52;;;7.78;;
62030;SDS011;62035;52.094;5.112;2023-06-22T08:55:12;10.85;;;7.53;;
62030;SDS011;62035;52.094;5.112;2023-06-22T08:57:40;15.55;;;9.43;;
62030;SDS011;62035;52.094;5.112;2023-06-22T09:00:09;14.57;;;9.75;;
62030;SDS011;62035;52.094;5.112;2023-06-22T09:02:46;12.30;;;8.13;;
62030;SDS011;62035;52.094;5.112;2023-06-22T09:05:15;14.00;;;8.02;;
62030;SDS011;62035;52.094;5.112;2023-06-22T09:07:44;14.52;;;9.38;;
62030;SDS011;62035;52.094;5.112;2023-06-22T09:10:12;14.70;;;8.80;;
62030;SDS011;62035;52.094;5.112;2023-06-22T09:12:39;9.85;;;6.03;;
62030;SDS011;62035;52.094;5.112;2023-06-22T09:15:08;10.02;;;5.15;;
62030;SDS011;62035;52.094;5.112;2023-06-22T09:17:36;9.10;;;4.22;;
62030;SDS011;62035;52.094;5.112;2023-06-22T09:20:05;4.95;;;3.40;;
62030;SDS011;62035;52.094;5.112;2023-06-22T09:22:36;7.25;;;4.55;;
62030;SDS011;62035;52.094;5.112;2023-06-22T09:25:06;9.10;;;4.78;;
62030;SDS011;62035;52.094;5.112;2023-06-22T09:27:35;12.50;;;5.50;;
62030;SDS011;62035;52.094;5.112;2023-06-22T09:30:02;8.63;;;5.10;;
62030;SDS011;62035;52.094;5.112;2023-06-22T09:32:32;8.60;;;4.60;;
62030;SDS011;62035;52.094;5.112;2023-06-22T09:35:02;10.48;;;4.90;;
62030;SDS011;62035;52.094;5.112;2023-06-22T09:37:32;8.32;;;4.93;;
62030;SDS011;62035;52.094;5.112;2023-06-22T09:40:00;8.30;;;4.85;;
62030;SDS011;62035;52.094;5.112;2023-06-22T09:42:31;9.93;;;5.55;;
62030;SDS011;62035;52.094;5.112;2023-06-22T09:45:00;7.80;;;5.38;;
62030;SDS011;62035;52.094;5.112;2023-06-22T09:47:28;12.25;;;6.03;;
62030;SDS011;62035;52.094;5.112;2023-06-22T09:49:56;7.43;;;5.72;;
62030;SDS011;62035;52.094;5.112;2023-06-22T09:52:25;8.90;;;5.38;;
62030;SDS011;62035;52.094;5.112;2023-06-22T09:54:53;11.57;;;6.03;;
62030;SDS011;62035;52.094;5.112;2023-06-22T09:57:21;9.55;;;6.30;;
62030;SDS011;62035;52.094;5.112;2023-06-22T09:59:50;10.15;;;5.75;;
62030;SDS011;62035;52.094;5.112;2023-06-22T10:02:17;10.05;;;7.25;;
62030;SDS011;62035;52.094;5.112;2023-06-22T10:04:45;17.25;;;7.30;;
62030;SDS011;62035;52.094;5.112;2023-06-22T10:07:13;11.38;;;7.00;;
62030;SDS011;62035;52.094;5.112;2023-06-22T10:09:41;17.85;;;8.63;;
62030;SDS011;62035;52.094;5.112;2023-06-22T10:12:08;12.73;;;8.52;;
62030;SDS011;62035;52.094;5.112;2023-06-22T10:14:36;14.77;;;9.00;;
62030;SDS011;62035;52.094;5.112;2023-06-22T10:17:05;17.35;;;9.02;;
62030;SDS011;62035;52.094;5.112;2023-06-22T10:19:34;12.27;;;8.47;;
62030;SDS011;62035;52.094;5.112;2023-06-22T10:22:03;11.68;;;7.53;;
62030;SDS011;62035;52.094;5.112;2023-06-22T10:24:32;12.80;;;7.45;;
62030;SDS011;62035;52.094;5.112;2023-06-22T10:26:59;14.32;;;7.15;;
62030;SDS011;62035;52.094;5.112;2023-06-22T10:29:27;11.48;;;7.03;;
62030;SDS011;62035;52.094;5.112;2023-06-22T10:31:55;10.27;;;7.50;;
62030;SDS011;62035;52.094;5.112;2023-06-22T10:34:24;11.90;;;7.28;;
62030;SDS011;62035;52.094;5.112;2023-06-22T10:36:51;12.63;;;6.78;;
62030;SDS011;62035;52.094;5.112;2023-06-22T10:39:19;10.98;;;6.65;;
62030;SDS011;62035;52.094;5.112;2023-06-22T10:41:47;8.45;;;5.72;;
62030;SDS011;62035;52.094;5.112;2023-06-22T10:44:15;12.07;;;5.60;;
62030;SDS011;62035;52.094;5.112;2023-06-22T10:46:43;9.07;;;6.22;;
62030;SDS011;62035;52.094;5.112;2023-06-22T10:49:11;8.93;;;5.32;;
62030;SDS011;62035;52.094;5.112;2023-06-22T10:51:40;6.90;;;4.80;;
62030;SDS011;62035;52.094;5.112;2023-06-22T10:54:08;8.75;;;4.70;;
62030;SDS011;62035;52.094;5.112;2023-06-22T10:56:35;8.32;;;4.38;;
62030;SDS011;62035;52.094;5.112;2023-06-22T10:59:03;8.52;;;4.90;;
62030;SDS011;62035;52.094;5.112;2023-06-22T11:01:31;8.13;;;4.53;;
62030;SDS011;62035;52.094;5.112;2023-06-22T11:03:59;12.05;;;5.25;;
62030;SDS011;62035;52.094;5.112;2023-06-22T11:06:27;5.65;;;4.18;;
62030;SDS011;62035;52.094;5.112;2023-06-22T11:08:56;12.18;;;4.78;;
62030;SDS011;62035;52.094;5.112;2023-06-22T11:11:25;12.00;;;4.88;;
62030;SDS011;62035;52.094;5.112;2023-06-22T11:13:53;8.88;;;4.78;;
62030;SDS011;62035;52.094;5.112;2023-06-22T11:16:21;11.45;;;5.40;;
62030;SDS011;62035;52.094;5.112;2023-06-22T11:18:48;9.93;;;5.18;;
62030;SDS011;62035;52.094;5.112;2023-06-22T11:21:16;11.70;;;5.22;;
62030;SDS011;62035;52.094;5.112;2023-06-22T11:23:44;10.10;;;5.30;;
62030;SDS011;62035;52.094;5.112;2023-06-22T11:26:14;6.35;;;4.63;;
62030;SDS011;62035;52.094;5.112;2023-06-22T11:28:41;11.45;;;4.80;;
62030;SDS011;62035;52.094;5.112;2023-06-22T11:31:09;8.20;;;4.78;;
62030;SDS011;62035;52.094;5.112;2023-06-22T11:33:36;6.72;;;4.35;;
62030;SDS011;62035;52.094;5.112;2023-06-22T11:36:04;6.43;;;4.57;;
62030;SDS011;62035;52.094;5.112;2023-06-22T11:38:32;8.18;;;4.55;;
62030;SDS011;62035;52.094;5.112;2023-06-22T11:41:00;5.85;;;3.75;;
62030;SDS011;62035;52.094;5.112;2023-06-22T11:43:29;7.43;;;4.25;;
62030;SDS011;62035;52.094;5.112;2023-06-22T11:45:57;10.40;;;5.60;;
62030;SDS011;62035;52.094;5.112;2023-06-22T11:48:25;8.13;;;4.45;;
62030;SDS011;62035;52.094;5.112;2023-06-22T11:50:52;11.65;;;6.22;;
62030;SDS011;62035;52.094;5.112;2023-06-22T11:53:20;11.23;;;5.72;;
62030;SDS011;62035;52.094;5.112;2023-06-22T11:55:48;11.10;;;6.65;;
62030;SDS011;62035;52.094;5.112;2023-06-22T11:58:16;12.35;;;7.30;;
62030;SDS011;62035;52.094;5.112;2023-06-22T12:00:45;14.70;;;7.30;;
62030;SDS011;62035;52.094;5.112;2023-06-22T12:03:13;14.73;;;6.55;;
62030;SDS011;62035;52.094;5.112;2023-06-22T12:05:42;8.88;;;6.38;;
62030;SDS011;62035;52.094;5.112;2023-06-22T12:08:10;12.15;;;6.45;;
62030;SDS011;62035;52.094;5.112;2023-06-22T12:10:37;8.35;;;6.15;;
62030;SDS011;62035;52.094;5.112;2023-06-22T12:13:05;9.00;;;7.13;;
62030;SDS011;62035;52.094;5.112;2023-06-22T12:15:33;8.60;;;6.40;;
62030;SDS011;62035;52.094;5.112;2023-06-22T12:18:02;9.93;;;6.50;;
62030;SDS011;62035;52.094;5.112;2023-06-22T12:20:30;11.70;;;6.95;;
62030;SDS011;62035;52.094;5.112;2023-06-22T12:22:58;11.70;;;6.50;;
62030;SDS011;62035;52.094;5.112;2023-06-22T12:25:25;10.98;;;6.07;;
62030;SDS011;62035;52.094;5.112;2023-06-22T12:27:53;10.27;;;6.55;;
62030;SDS011;62035;52.094;5.112;2023-06-22T12:30:21;9.95;;;7.47;;
62030;SDS011;62035;52.094;5.112;2023-06-22T12:32:49;12.32;;;6.78;;
62030;SDS011;62035;52.094;5.112;2023-06-22T12:35:18;15.43;;;7.60;;
62030;SDS011;62035;52.094;5.112;2023-06-22T12:37:46;16.40;;;7.70;;
62030;SDS011;62035;52.094;5.112;2023-06-22T12:40:13;14.27;;;7.63;;
62030;SDS011;62035;52.094;5.112;2023-06-22T12:42:41;19.05;;;8.20;;
62030;SDS011;62035;52.094;5.112;2023-06-22T12:45:09;12.63;;;7.40;;
62030;SDS011;62035;52.094;5.112;2023-06-22T12:47:37;16.05;;;7.90;;
62030;SDS011;62035;52.094;5.112;2023-06-22T12:50:05;15.35;;;7.80;;
62030;SDS011;62035;52.094;5.112;2023-06-22T12:52:36;13.32;;;8.38;;
62030;SDS011;62035;52.094;5.112;2023-06-22T12:55:07;13.82;;;8.07;;
62030;SDS011;62035;52.094;5.112;2023-06-22T12:57:35;21.65;;;8.68;;
62030;SDS011;62035;52.094;5.112;2023-06-22T13:00:03;17.85;;;10.27;;
62030;SDS011;62035;52.094;5.112;2023-06-22T13:02:33;14.02;;;8.48;;
62030;SDS011;62035;52.094;5.112;2023-06-22T13:05:01;19.27;;;9.45;;
62030;SDS011;62035;52.094;5.112;2023-06-22T13:07:30;16.15;;;9.30;;
62030;SDS011;62035;52.094;5.112;2023-06-22T13:09:59;16.77;;;10.10;;
62030;SDS011;62035;52.094;5.112;2023-06-22T13:12:27;17.73;;;10.75;;
62030;SDS011;62035;52.094;5.112;2023-06-22T13:14:55;16.60;;;10.05;;
62030;SDS011;62035;52.094;5.112;2023-06-22T13:17:23;17.63;;;10.70;;
62030;SDS011;62035;52.094;5.112;2023-06-22T13:19:50;15.48;;;11.10;;
62030;SDS011;62035;52.094;5.112;2023-06-22T13:22:25;20.85;;;11.10;;
62030;SDS011;62035;52.094;5.112;2023-06-22T13:24:56;18.17;;;12.00;;
62030;SDS011;62035;52.094;5.112;2023-06-22T13:27:27;16.88;;;10.75;;
62030;SDS011;62035;52.094;5.112;2023-06-22T13:29:54;20.95;;;12.20;;
62030;SDS011;62035;52.094;5.112;2023-06-22T13:32:22;22.83;;;12.75;;
62030;SDS011;62035;52.094;5.112;2023-06-22T13:34:50;20.05;;;12.13;;
62030;SDS011;62035;52.094;5.112;2023-06-22T13:37:19;19.00;;;12.23;;
62030;SDS011;62035;52.094;5.112;2023-06-22T13:39:47;19.02;;;13.35;;
62030;SDS011;62035;52.094;5.112;2023-06-22T13:42:14;19.92;;;12.93;;
62030;SDS011;62035;52.094;5.112;2023-06-22T13:44:44;21.05;;;13.10;;
62030;SDS011;62035;52.094;5.112;2023-06-22T13:47:11;21.35;;;13.25;;
62030;SDS011;62035;52.094;5.112;2023-06-22T13:49:39;19.70;;;12.70;;
62030;SDS011;62035;52.094;5.112;2023-06-22T13:52:07;17.23;;;12.75;;
62030;SDS011;62035;52.094;5.112;2023-06-22T13:57:06;19.33;;;12.23;;
62030;SDS011;62035;52.094;5.112;2023-06-22T13:59:34;20.38;;;11.93;;
62030;SDS011;62035;52.094;5.112;2023-06-22T14:02:03;19.75;;;11.88;;
62030;SDS011;62035;52.094;5.112;2023-06-22T14:04:32;13.73;;;10.23;;
62030;SDS011;62035;52.094;5.112;2023-06-22T14:06:59;17.00;;;11.35;;
62030;SDS011;62035;52.094;5.112;2023-06-22T14:09:27;21.08;;;15.27;;
62030;SDS011;62035;52.094;5.112;2023-06-22T14:11:55;16.05;;;10.98;;
62030;SDS011;62035;52.094;5.112;2023-06-22T14:14:22;16.10;;;10.70;;
62030;SDS011;62035;52.094;5.112;2023-06-22T14:16:50;19.27;;;11.55;;
62030;SDS011;62035;52.094;5.112;2023-06-22T14:19:19;14.88;;;10.60;;
62030;SDS011;62035;52.094;5.112;2023-06-22T14:21:47;16.23;;;10.73;;
62030;SDS011;62035;52.094;5.112;2023-06-22T14:24:15;14.95;;;10.82;;
62030;SDS011;62035;52.094;5.112;2023-06-22T14:26:42;18.08;;;10.98;;
62030;SDS011;62035;52.094;5.112;2023-06-22T14:29:10;16.65;;;11.30;;
62030;SDS011;62035;52.094;5.112;2023-06-22T14:31:38;15.85;;;10.23;;
62030;SDS011;62035;52.094;5.112;2023-06-22T14:34:05;16.45;;;11.75;;
62030;SDS011;62035;52.094;5.112;2023-06-22T14:36:36;13.80;;;10.95;;
62030;SDS011;62035;52.094;5.112;2023-06-22T14:39:03;16.77;;;10.85;;
62030;SDS011;62035;52.094;5.112;2023-06-22T14:41:31;16.77;;;11.73;;
62030;SDS011;62035;52.094;5.112;2023-06-22T14:43:59;16.92;;;11.40;;